sensor_id;sensor_type;location;lat;lon;timestamp;pressure;altitude;pressure_sealevel;temperature
78225;BMP280;67498;53.650;10.090;2023-07-29T00:01:23;100628.38;;;17.97
78225;BMP280;67498;53.650;10.090;2023-07-29T00:03:48;100614.78;;;17.89
78225;BMP280;67498;53.650;10.090;2023-07-29T00:06:13;100622.00;;;17.88
78225;BMP280;67498;53.650;10.090;2023-07-29T00:08:38;100620.13;;;17.80
78225;BMP280;67498;53.650;10.090;2023-07-29T00:11:04;100617.69;;;17.76
78225;BMP280;67498;53.650;10.090;2023-07-29T00:13:29;100608.59;;;17.68
78225;BMP280;67498;53.650;10.090;2023-07-29T00:15:54;100600.44;;;17.57
78225;BMP280;67498;53.650;10.090;2023-07-29T00:18:20;100603.09;;;17.57
78225;BMP280;67498;53.650;10.090;2023-07-29T00:20:46;100606.44;;;17.57
78225;BMP280;67498;53.650;10.090;2023-07-29T00:23:11;100594.31;;;17.51
78225;BMP280;67498;53.650;10.090;2023-07-29T00:25:36;100594.19;;;17.45
78225;BMP280;67498;53.650;10.090;2023-07-29T00:28:01;100605.03;;;17.47
78225;BMP280;67498;53.650;10.090;2023-07-29T00:30:27;100598.91;;;17.41
78225;BMP280;67498;53.650;10.090;2023-07-29T00:32:52;100596.44;;;17.37
78225;BMP280;67498;53.650;10.090;2023-07-29T00:35:17;100590.69;;;17.39
78225;BMP280;67498;53.650;10.090;2023-07-29T00:37:43;100590.41;;;17.37
78225;BMP280;67498;53.650;10.090;2023-07-29T00:40:14;100580.63;;;17.28
78225;BMP280;67498;53.650;10.090;2023-07-29T00:42:40;100587.94;;;17.33
78225;BMP280;67498;53.650;10.090;2023-07-29T00:45:08;100576.38;;;17.31
78225;BMP280;67498;53.650;10.090;2023-07-29T00:47:33;100563.91;;;17.22
78225;BMP280;67498;53.650;10.090;2023-07-29T00:49:59;100571.09;;;17.22
78225;BMP280;67498;53.650;10.090;2023-07-29T00:52:24;100566.44;;;17.16
78225;BMP280;67498;53.650;10.090;2023-07-29T00:54:49;100566.16;;;17.14
78225;BMP280;67498;53.650;10.090;2023-07-29T00:57:15;100571.88;;;17.13
78225;BMP280;67498;53.650;10.090;2023-07-29T00:59:41;100560.00;;;17.08
78225;BMP280;67498;53.650;10.090;2023-07-29T01:02:07;100567.34;;;17.13
78225;BMP280;67498;53.650;10.090;2023-07-29T01:04:33;100563.22;;;17.12
78225;BMP280;67498;53.650;10.090;2023-07-29T01:07:07;100548.44;;;17.06
78225;BMP280;67498;53.650;10.090;2023-07-29T01:10:01;100550.94;;;17.09
78225;BMP280;67498;53.650;10.090;2023-07-29T01:15:12;100545.78;;;17.06
78225;BMP280;67498;53.650;10.090;2023-07-29T01:17:42;100537.47;;;17.07
78225;BMP280;67498;53.650;10.090;2023-07-29T01:20:11;100532.91;;;17.08
78225;BMP280;67498;53.650;10.090;2023-07-29T01:22:39;100544.94;;;17.09
78225;BMP280;67498;53.650;10.090;2023-07-29T01:25:05;100550.94;;;17.09
78225;BMP280;67498;53.650;10.090;2023-07-29T01:27:30;100549.19;;;17.06
78225;BMP280;67498;53.650;10.090;2023-07-29T01:29:57;100542.72;;;17.07
78225;BMP280;67498;53.650;10.090;2023-07-29T01:32:35;100533.50;;;17.03
78225;BMP280;67498;53.650;10.090;2023-07-29T01:37:47;100532.06;;;17.11
78225;BMP280;67498;53.650;10.090;2023-07-29T01:40:12;100532.88;;;17.17
78225;BMP280;67498;53.650;10.090;2023-07-29T01:42:38;100532.25;;;17.22
78225;BMP280;67498;53.650;10.090;2023-07-29T01:45:04;100526.13;;;17.25
78225;BMP280;67498;53.650;10.090;2023-07-29T01:47:30;100538.72;;;17.30
78225;BMP280;67498;53.650;10.090;2023-07-29T01:49:55;100538.22;;;17.32
78225;BMP280;67498;53.650;10.090;2023-07-29T01:52:20;100534.25;;;17.36
78225;BMP280;67498;53.650;10.090;2023-07-29T01:54:46;100543.94;;;17.39
78225;BMP280;67498;53.650;10.090;2023-07-29T01:57:11;100533.53;;;17.36
78225;BMP280;67498;53.650;10.090;2023-07-29T01:59:36;100551.25;;;17.45
78225;BMP280;67498;53.650;10.090;2023-07-29T02:02:02;100552.25;;;17.47
78225;BMP280;67498;53.650;10.090;2023-07-29T02:04:27;100550.06;;;17.46
78225;BMP280;67498;53.650;10.090;2023-07-29T02:06:53;100551.47;;;17.47
78225;BMP280;67498;53.650;10.090;2023-07-29T02:09:18;100550.72;;;17.55
78225;BMP280;67498;53.650;10.090;2023-07-29T02:11:44;100558.19;;;17.57
78225;BMP280;67498;53.650;10.090;2023-07-29T02:14:09;100551.31;;;17.59
78225;BMP280;67498;53.650;10.090;2023-07-29T02:16:34;100538.38;;;17.61
78225;BMP280;67498;53.650;10.090;2023-07-29T02:19:00;100528.84;;;17.64
78225;BMP280;67498;53.650;10.090;2023-07-29T02:21:25;100525.28;;;17.67
78225;BMP280;67498;53.650;10.090;2023-07-29T02:23:50;100530.22;;;17.74
78225;BMP280;67498;53.650;10.090;2023-07-29T02:26:16;100538.25;;;17.80
78225;BMP280;67498;53.650;10.090;2023-07-29T02:28:42;100535.00;;;17.85
78225;BMP280;67498;53.650;10.090;2023-07-29T02:31:19;100517.69;;;17.84
78225;BMP280;67498;53.650;10.090;2023-07-29T02:33:45;100529.38;;;17.92
78225;BMP280;67498;53.650;10.090;2023-07-29T02:36:12;100509.41;;;17.91
78225;BMP280;67498;53.650;10.090;2023-07-29T02:38:38;100515.53;;;17.97
78225;BMP280;67498;53.650;10.090;2023-07-29T02:41:03;100511.16;;;17.94
78225;BMP280;67498;53.650;10.090;2023-07-29T02:43:28;100504.41;;;17.93
78225;BMP280;67498;53.650;10.090;2023-07-29T02:45:53;100510.78;;;18.01
78225;BMP280;67498;53.650;10.090;2023-07-29T02:48:19;100516.34;;;18.03
78225;BMP280;67498;53.650;10.090;2023-07-29T02:50:44;100514.69;;;18.06
78225;BMP280;67498;53.650;10.090;2023-07-29T02:53:09;100511.53;;;18.02
78225;BMP280;67498;53.650;10.090;2023-07-29T02:55:35;100504.13;;;18.06
78225;BMP280;67498;53.650;10.090;2023-07-29T02:58:00;100494.78;;;18.05
78225;BMP280;67498;53.650;10.090;2023-07-29T03:00:25;100488.22;;;18.00
78225;BMP280;67498;53.650;10.090;2023-07-29T03:02:50;100502.84;;;18.01
78225;BMP280;67498;53.650;10.090;2023-07-29T03:05:16;100483.56;;;17.95
78225;BMP280;67498;53.650;10.090;2023-07-29T03:07:41;100492.22;;;17.96
78225;BMP280;67498;53.650;10.090;2023-07-29T03:10:06;100487.19;;;17.98
78225;BMP280;67498;53.650;10.090;2023-07-29T03:12:32;100486.94;;;17.96
78225;BMP280;67498;53.650;10.090;2023-07-29T03:14:57;100492.22;;;17.96
78225;BMP280;67498;53.650;10.090;2023-07-29T03:17:22;100497.34;;;17.99
78225;BMP280;67498;53.650;10.090;2023-07-29T03:19:48;100488.13;;;17.95
78225;BMP280;67498;53.650;10.090;2023-07-29T03:22:13;100484.28;;;17.96
78225;BMP280;67498;53.650;10.090;2023-07-29T03:24:38;100487.19;;;17.98
78225;BMP280;67498;53.650;10.090;2023-07-29T03:27:04;100482.63;;;17.98
78225;BMP280;67498;53.650;10.090;2023-07-29T03:29:30;100499.34;;;18.04
78225;BMP280;67498;53.650;10.090;2023-07-29T03:31:55;100490.84;;;18.00
78225;BMP280;67498;53.650;10.090;2023-07-29T03:34:20;100494.50;;;18.03
78225;BMP280;67498;53.650;10.090;2023-07-29T03:36:46;100489.94;;;18.03
78225;BMP280;67498;53.650;10.090;2023-07-29T03:39:13;100495.78;;;18.07
78225;BMP280;67498;53.650;10.090;2023-07-29T03:41:38;100495.78;;;18.07
78225;BMP280;67498;53.650;10.090;2023-07-29T03:44:03;100500.06;;;18.05
78225;BMP280;67498;53.650;10.090;2023-07-29T03:46:29;100507.38;;;18.10
78225;BMP280;67498;53.650;10.090;2023-07-29T03:48:54;100508.78;;;18.11
78225;BMP280;67498;53.650;10.090;2023-07-29T03:51:19;100502.25;;;18.06
78225;BMP280;67498;53.650;10.090;2023-07-29T03:53:45;100493.13;;;18.07
78225;BMP280;67498;53.650;10.090;2023-07-29T03:56:11;100496.06;;;18.09
78225;BMP280;67498;53.650;10.090;2023-07-29T03:58:36;100503.34;;;18.14
78225;BMP280;67498;53.650;10.090;2023-07-29T04:01:01;100498.34;;;18.16
78225;BMP280;67498;53.650;10.090;2023-07-29T04:03:26;100505.81;;;18.18
78225;BMP280;67498;53.650;10.090;2023-07-29T04:05:52;100491.84;;;18.17
78225;BMP280;67498;53.650;10.090;2023-07-29T04:08:18;100494.31;;;18.21
78225;BMP280;67498;53.650;10.090;2023-07-29T04:10:43;100490.78;;;18.24
78225;BMP280;67498;53.650;10.090;2023-07-29T04:13:09;100488.78;;;18.19
78225;BMP280;67498;53.650;10.090;2023-07-29T04:15:34;100491.50;;;18.25
78225;BMP280;67498;53.650;10.090;2023-07-29T04:17:59;100477.75;;;18.21
78225;BMP280;67498;53.650;10.090;2023-07-29T04:20:24;100485.31;;;18.28
78225;BMP280;67498;53.650;10.090;2023-07-29T04:22:50;100487.50;;;18.29
78225;BMP280;67498;53.650;10.090;2023-07-29T04:25:15;100489.69;;;18.31
78225;BMP280;67498;53.650;10.090;2023-07-29T04:27:40;100490.69;;;18.33
78225;BMP280;67498;53.650;10.090;2023-07-29T04:30:06;100486.41;;;18.36
78225;BMP280;67498;53.650;10.090;2023-07-29T04:32:31;100482.03;;;18.33
78225;BMP280;67498;53.650;10.090;2023-07-29T04:34:57;100496.34;;;18.41
78225;BMP280;67498;53.650;10.090;2023-07-29T04:37:22;100498.81;;;18.44
78225;BMP280;67498;53.650;10.090;2023-07-29T04:39:47;100493.78;;;18.47
78225;BMP280;67498;53.650;10.090;2023-07-29T04:42:12;100490.13;;;18.44
78225;BMP280;67498;53.650;10.090;2023-07-29T04:44:38;100495.03;;;18.51
78225;BMP280;67498;53.650;10.090;2023-07-29T04:47:03;100483.94;;;18.47
78225;BMP280;67498;53.650;10.090;2023-07-29T04:49:28;100478.16;;;18.49
78225;BMP280;67498;53.650;10.090;2023-07-29T04:51:54;100489.31;;;18.53
78225;BMP280;67498;53.650;10.090;2023-07-29T04:54:19;100484.38;;;18.60
78225;BMP280;67498;53.650;10.090;2023-07-29T04:56:46;100485.34;;;18.63
78225;BMP280;67498;53.650;10.090;2023-07-29T04:59:11;100480.06;;;18.63
78225;BMP280;67498;53.650;10.090;2023-07-29T05:01:38;100482.81;;;18.68
78225;BMP280;67498;53.650;10.090;2023-07-29T05:04:03;100478.25;;;18.69
78225;BMP280;67498;53.650;10.090;2023-07-29T05:06:28;100487.47;;;18.74
78225;BMP280;67498;53.650;10.090;2023-07-29T05:08:54;100482.44;;;18.76
78225;BMP280;67498;53.650;10.090;2023-07-29T05:11:19;100476.66;;;18.77
78225;BMP280;67498;53.650;10.090;2023-07-29T05:13:44;100488.72;;;18.78
78225;BMP280;67498;53.650;10.090;2023-07-29T05:16:09;100485.63;;;18.80
78225;BMP280;67498;53.650;10.090;2023-07-29T05:18:35;100496.19;;;18.80
78225;BMP280;67498;53.650;10.090;2023-07-29T05:21:00;100493.25;;;18.78
78225;BMP280;67498;53.650;10.090;2023-07-29T05:23:25;100477.59;;;18.74
78225;BMP280;67498;53.650;10.090;2023-07-29T05:25:50;100482.06;;;18.83
78225;BMP280;67498;53.650;10.090;2023-07-29T05:28:16;100480.03;;;18.92
78225;BMP280;67498;53.650;10.090;2023-07-29T05:30:43;100479.38;;;18.98
78225;BMP280;67498;53.650;10.090;2023-07-29T05:33:08;100482.63;;;19.07
78225;BMP280;67498;53.650;10.090;2023-07-29T05:35:34;100477.94;;;19.17
78225;BMP280;67498;53.650;10.090;2023-07-29T05:37:59;100475.75;;;19.36
78225;BMP280;67498;53.650;10.090;2023-07-29T05:40:24;100474.09;;;19.38
78225;BMP280;67498;53.650;10.090;2023-07-29T05:42:49;100482.03;;;19.38
78225;BMP280;67498;53.650;10.090;2023-07-29T05:45:15;100472.56;;;19.32
78225;BMP280;67498;53.650;10.090;2023-07-29T05:47:41;100479.66;;;19.40
78225;BMP280;67498;53.650;10.090;2023-07-29T05:50:06;100477.88;;;19.52
78225;BMP280;67498;53.650;10.090;2023-07-29T05:52:32;100479.03;;;19.51
78225;BMP280;67498;53.650;10.090;2023-07-29T05:54:58;100475.88;;;19.47
78225;BMP280;67498;53.650;10.090;2023-07-29T05:57:23;100483.00;;;19.41
78225;BMP280;67498;53.650;10.090;2023-07-29T05:59:48;100470.19;;;19.34
78225;BMP280;67498;53.650;10.090;2023-07-29T06:02:14;100477.66;;;19.56
78225;BMP280;67498;53.650;10.090;2023-07-29T06:04:39;100477.78;;;19.67
78225;BMP280;67498;53.650;10.090;2023-07-29T06:07:05;100471.53;;;19.70
78225;BMP280;67498;53.650;10.090;2023-07-29T06:09:31;100478.69;;;19.64
78225;BMP280;67498;53.650;10.090;2023-07-29T06:11:56;100476.66;;;19.53
78225;BMP280;67498;53.650;10.090;2023-07-29T06:14:21;100479.44;;;19.44
78225;BMP280;67498;53.650;10.090;2023-07-29T06:16:46;100469.91;;;19.32
78225;BMP280;67498;53.650;10.090;2023-07-29T06:19:12;100471.56;;;19.29
78225;BMP280;67498;53.650;10.090;2023-07-29T06:21:38;100479.84;;;19.37
78225;BMP280;67498;53.650;10.090;2023-07-29T06:24:03;100468.78;;;19.38
78225;BMP280;67498;53.650;10.090;2023-07-29T06:26:29;100457.66;;;19.55
78225;BMP280;67498;53.650;10.090;2023-07-29T06:28:54;100466.03;;;19.73
78225;BMP280;67498;53.650;10.090;2023-07-29T06:31:19;100457.19;;;19.82
78225;BMP280;67498;53.650;10.090;2023-07-29T06:33:44;100465.66;;;19.86
78225;BMP280;67498;53.650;10.090;2023-07-29T06:36:10;100474.75;;;19.80
78225;BMP280;67498;53.650;10.090;2023-07-29T06:38:35;100472.25;;;19.70
78225;BMP280;67498;53.650;10.090;2023-07-29T06:41:00;100468.09;;;19.64
78225;BMP280;67498;53.650;10.090;2023-07-29T06:43:26;100471.00;;;19.66
78225;BMP280;67498;53.650;10.090;2023-07-29T06:45:51;100463.31;;;19.68
78225;BMP280;67498;53.650;10.090;2023-07-29T06:48:17;100461.75;;;19.76
78225;BMP280;67498;53.650;10.090;2023-07-29T06:50:42;100467.53;;;19.80
78225;BMP280;67498;53.650;10.090;2023-07-29T06:53:07;100443.63;;;19.74
78225;BMP280;67498;53.650;10.090;2023-07-29T06:55:32;100462.13;;;19.69
78225;BMP280;67498;53.650;10.090;2023-07-29T06:57:58;100459.22;;;19.67
78225;BMP280;67498;53.650;10.090;2023-07-29T07:00:23;100463.66;;;19.76
78225;BMP280;67498;53.650;10.090;2023-07-29T07:02:48;100462.03;;;19.84
78225;BMP280;67498;53.650;10.090;2023-07-29T07:05:14;100454.53;;;19.82
78225;BMP280;67498;53.650;10.090;2023-07-29T07:07:39;100461.03;;;19.81
78225;BMP280;67498;53.650;10.090;2023-07-29T07:10:05;100455.63;;;19.70
78225;BMP280;67498;53.650;10.090;2023-07-29T07:12:30;100465.50;;;19.69
78225;BMP280;67498;53.650;10.090;2023-07-29T07:14:55;100464.53;;;19.67
78225;BMP280;67498;53.650;10.090;2023-07-29T07:17:20;100472.19;;;19.65
78225;BMP280;67498;53.650;10.090;2023-07-29T07:19:46;100466.13;;;19.59
78225;BMP280;67498;53.650;10.090;2023-07-29T07:22:11;100471.22;;;19.62
78225;BMP280;67498;53.650;10.090;2023-07-29T07:24:36;100472.66;;;19.63
78225;BMP280;67498;53.650;10.090;2023-07-29T07:27:02;100472.88;;;19.60
78225;BMP280;67498;53.650;10.090;2023-07-29T07:29:27;100482.56;;;19.63
78225;BMP280;67498;53.650;10.090;2023-07-29T07:31:53;100483.53;;;19.65
78225;BMP280;67498;53.650;10.090;2023-07-29T07:34:19;100456.44;;;19.56
78225;BMP280;67498;53.650;10.090;2023-07-29T07:36:45;100460.34;;;19.60
78225;BMP280;67498;53.650;10.090;2023-07-29T07:39:10;100460.16;;;19.64
78225;BMP280;67498;53.650;10.090;2023-07-29T07:41:35;100466.38;;;19.61
78225;BMP280;67498;53.650;10.090;2023-07-29T07:44:01;100462.28;;;19.60
78225;BMP280;67498;53.650;10.090;2023-07-29T07:46:26;100473.59;;;19.60
78225;BMP280;67498;53.650;10.090;2023-07-29T07:48:51;100469.97;;;19.58
78225;BMP280;67498;53.650;10.090;2023-07-29T07:51:16;100467.84;;;19.62
78225;BMP280;67498;53.650;10.090;2023-07-29T07:53:42;100465.66;;;19.60
78225;BMP280;67498;53.650;10.090;2023-07-29T07:56:07;100460.56;;;19.57
78225;BMP280;67498;53.650;10.090;2023-07-29T07:58:33;100457.69;;;19.60
78225;BMP280;67498;53.650;10.090;2023-07-29T08:01:03;100452.81;;;19.53
78225;BMP280;67498;53.650;10.090;2023-07-29T08:03:29;100452.03;;;19.47
78225;BMP280;67498;53.650;10.090;2023-07-29T08:05:54;100451.03;;;19.44
78225;BMP280;67498;53.650;10.090;2023-07-29T08:08:20;100445.03;;;19.44
78225;BMP280;67498;53.650;10.090;2023-07-29T08:10:45;100454.44;;;19.45
78225;BMP280;67498;53.650;10.090;2023-07-29T08:13:10;100460.50;;;19.51
78225;BMP280;67498;53.650;10.090;2023-07-29T08:15:35;100463.69;;;19.55
78225;BMP280;67498;53.650;10.090;2023-07-29T08:18:01;100465.13;;;19.56
78225;BMP280;67498;53.650;10.090;2023-07-29T08:20:26;100463.47;;;19.59
78225;BMP280;67498;53.650;10.090;2023-07-29T08:22:51;100463.47;;;19.59
78225;BMP280;67498;53.650;10.090;2023-07-29T08:25:16;100453.06;;;19.55
78225;BMP280;67498;53.650;10.090;2023-07-29T08:27:42;100458.28;;;19.70
78225;BMP280;67498;53.650;10.090;2023-07-29T08:30:07;100458.38;;;19.76
78225;BMP280;67498;53.650;10.090;2023-07-29T08:32:33;100467.28;;;19.78
78225;BMP280;67498;53.650;10.090;2023-07-29T08:34:59;100456.44;;;19.76
78225;BMP280;67498;53.650;10.090;2023-07-29T08:37:24;100471.91;;;19.83
78225;BMP280;67498;53.650;10.090;2023-07-29T08:39:49;100466.13;;;19.85
78225;BMP280;67498;53.650;10.090;2023-07-29T08:42:18;100465.94;;;19.88
78225;BMP280;67498;53.650;10.090;2023-07-29T08:44:45;100469.34;;;19.94
78225;BMP280;67498;53.650;10.090;2023-07-29T08:47:11;100473.50;;;20.01
78225;BMP280;67498;53.650;10.090;2023-07-29T08:49:38;100472.34;;;20.08
78225;BMP280;67498;53.650;10.090;2023-07-29T08:52:04;100468.56;;;20.14
78225;BMP280;67498;53.650;10.090;2023-07-29T08:54:31;100473.91;;;20.20
78225;BMP280;67498;53.650;10.090;2023-07-29T08:56:56;100476.81;;;20.22
78225;BMP280;67498;53.650;10.090;2023-07-29T08:59:22;100475.59;;;20.23
78225;BMP280;67498;53.650;10.090;2023-07-29T09:01:49;100477.78;;;20.24
78225;BMP280;67498;53.650;10.090;2023-07-29T09:04:14;100473.91;;;20.20
78225;BMP280;67498;53.650;10.090;2023-07-29T09:06:42;100479.97;;;20.26
78225;BMP280;67498;53.650;10.090;2023-07-29T09:09:08;100475.84;;;20.25
78225;BMP280;67498;53.650;10.090;2023-07-29T09:11:33;100486.53;;;20.31
78225;BMP280;67498;53.650;10.090;2023-07-29T09:13:59;100473.75;;;20.35
78225;BMP280;67498;53.650;10.090;2023-07-29T09:16:25;100468.72;;;20.37
78225;BMP280;67498;53.650;10.090;2023-07-29T09:18:51;100469.78;;;20.56
78225;BMP280;67498;53.650;10.090;2023-07-29T09:21:18;100472.53;;;20.73
78225;BMP280;67498;53.650;10.090;2023-07-29T09:23:47;100458.81;;;20.80
78225;BMP280;67498;53.650;10.090;2023-07-29T09:26:13;100454.75;;;20.85
78225;BMP280;67498;53.650;10.090;2023-07-29T09:28:39;100447.75;;;20.82
78225;BMP280;67498;53.650;10.090;2023-07-29T09:31:05;100457.16;;;20.83
78225;BMP280;67498;53.650;10.090;2023-07-29T09:33:34;100448.72;;;20.78
78225;BMP280;67498;53.650;10.090;2023-07-29T09:36:03;100455.25;;;20.83
78225;BMP280;67498;53.650;10.090;2023-07-29T09:38:28;100458.63;;;20.89
78225;BMP280;67498;53.650;10.090;2023-07-29T09:40:57;100446.34;;;20.92
78225;BMP280;67498;53.650;10.090;2023-07-29T09:43:29;100446.84;;;21.01
78225;BMP280;67498;53.650;10.090;2023-07-29T09:45:54;100434.81;;;21.00
78225;BMP280;67498;53.650;10.090;2023-07-29T09:48:24;100439.63;;;21.13
78225;BMP280;67498;53.650;10.090;2023-07-29T09:50:49;100437.75;;;21.19
78225;BMP280;67498;53.650;10.090;2023-07-29T09:53:15;100434.19;;;21.33
78225;BMP280;67498;53.650;10.090;2023-07-29T09:55:46;100433.00;;;21.57
78225;BMP280;67498;53.650;10.090;2023-07-29T09:58:11;100438.06;;;21.83
78225;BMP280;67498;53.650;10.090;2023-07-29T10:00:37;100432.53;;;21.98
78225;BMP280;67498;53.650;10.090;2023-07-29T10:03:04;100422.56;;;22.04
78225;BMP280;67498;53.650;10.090;2023-07-29T10:05:29;100422.81;;;22.06
78225;BMP280;67498;53.650;10.090;2023-07-29T10:07:55;100428.38;;;22.19
78225;BMP280;67498;53.650;10.090;2023-07-29T10:10:21;100425.91;;;22.27
78225;BMP280;67498;53.650;10.090;2023-07-29T10:12:47;100427.13;;;22.31
78225;BMP280;67498;53.650;10.090;2023-07-29T10:15:12;100435.09;;;22.37
78225;BMP280;67498;53.650;10.090;2023-07-29T10:17:38;100435.31;;;22.39
78225;BMP280;67498;53.650;10.090;2023-07-29T10:20:07;100429.97;;;22.45
78225;BMP280;67498;53.650;10.090;2023-07-29T10:22:36;100430.72;;;22.39
78225;BMP280;67498;53.650;10.090;2023-07-29T10:25:08;100434.84;;;22.35
78225;BMP280;67498;53.650;10.090;2023-07-29T10:27:47;100428.56;;;22.32
78225;BMP280;67498;53.650;10.090;2023-07-29T10:30:13;100433.88;;;22.44
78225;BMP280;67498;53.650;10.090;2023-07-29T10:32:38;100428.75;;;22.57
78225;BMP280;67498;53.650;10.090;2023-07-29T10:35:07;100427.22;;;22.78
78225;BMP280;67498;53.650;10.090;2023-07-29T10:37:33;100432.06;;;22.74
78225;BMP280;67498;53.650;10.090;2023-07-29T10:39:58;100431.09;;;22.66
78225;BMP280;67498;53.650;10.090;2023-07-29T10:42:23;100427.56;;;22.47
78225;BMP280;67498;53.650;10.090;2023-07-29T10:44:50;100424.44;;;22.37
78225;BMP280;67498;53.650;10.090;2023-07-29T10:49:49;100429.09;;;22.08
78225;BMP280;67498;53.650;10.090;2023-07-29T10:52:16;100416.34;;;21.90
78225;BMP280;67498;53.650;10.090;2023-07-29T10:54:43;100433.94;;;21.87
78225;BMP280;67498;53.650;10.090;2023-07-29T10:57:15;100427.94;;;21.70
78225;BMP280;67498;53.650;10.090;2023-07-29T10:59:53;100429.38;;;21.66
78225;BMP280;67498;53.650;10.090;2023-07-29T11:02:20;100418.00;;;21.59
78225;BMP280;67498;53.650;10.090;2023-07-29T11:04:54;100424.53;;;21.64
78225;BMP280;67498;53.650;10.090;2023-07-29T11:07:21;100424.50;;;21.58
78225;BMP280;67498;53.650;10.090;2023-07-29T11:20:16;100410.25;;;21.39
78225;BMP280;67498;53.650;10.090;2023-07-29T11:22:41;100417.03;;;21.51
78225;BMP280;67498;53.650;10.090;2023-07-29T11:25:09;100415.63;;;21.62
78225;BMP280;67498;53.650;10.090;2023-07-29T11:27:36;100422.63;;;21.76
78225;BMP280;67498;53.650;10.090;2023-07-29T11:30:04;100415.59;;;21.90
78225;BMP280;67498;53.650;10.090;2023-07-29T11:32:34;100403.97;;;22.04
78225;BMP280;67498;53.650;10.090;2023-07-29T11:35:07;100400.28;;;22.29
78225;BMP280;67498;53.650;10.090;2023-07-29T11:37:34;100413.31;;;22.44
78225;BMP280;67498;53.650;10.090;2023-07-29T11:39:59;100424.94;;;22.41
78225;BMP280;67498;53.650;10.090;2023-07-29T11:42:25;100416.97;;;22.35
78225;BMP280;67498;53.650;10.090;2023-07-29T11:44:51;100424.47;;;22.31
78225;BMP280;67498;53.650;10.090;2023-07-29T11:47:16;100416.72;;;22.28
78225;BMP280;67498;53.650;10.090;2023-07-29T11:49:41;100412.84;;;22.40
78225;BMP280;67498;53.650;10.090;2023-07-29T11:52:08;100415.13;;;22.66
78225;BMP280;67498;53.650;10.090;2023-07-29T11:54:35;100414.09;;;22.80
78225;BMP280;67498;53.650;10.090;2023-07-29T11:57:00;100416.28;;;22.82
78225;BMP280;67498;53.650;10.090;2023-07-29T11:59:27;100401.50;;;22.86
78225;BMP280;67498;53.650;10.090;2023-07-29T12:01:53;100401.16;;;23.01
78225;BMP280;67498;53.650;10.090;2023-07-29T12:04:19;100406.22;;;23.10
78225;BMP280;67498;53.650;10.090;2023-07-29T12:06:44;100418.22;;;23.28
78225;BMP280;67498;53.650;10.090;2023-07-29T12:09:10;100416.09;;;23.51
78225;BMP280;67498;53.650;10.090;2023-07-29T12:11:35;100417.31;;;23.74
78225;BMP280;67498;53.650;10.090;2023-07-29T12:14:00;100417.22;;;23.86
78225;BMP280;67498;53.650;10.090;2023-07-29T12:16:26;100420.31;;;23.90
78225;BMP280;67498;53.650;10.090;2023-07-29T12:18:51;100421.69;;;24.02
78225;BMP280;67498;53.650;10.090;2023-07-29T12:21:19;100407.34;;;24.05
78225;BMP280;67498;53.650;10.090;2023-07-29T12:23:44;100417.91;;;24.16
78225;BMP280;67498;53.650;10.090;2023-07-29T12:26:09;100415.22;;;24.16
78225;BMP280;67498;53.650;10.090;2023-07-29T12:28:35;100414.22;;;24.19
78225;BMP280;67498;53.650;10.090;2023-07-29T12:31:00;100414.38;;;24.27
78225;BMP280;67498;53.650;10.090;2023-07-29T12:33:35;100410.19;;;24.31
78225;BMP280;67498;53.650;10.090;2023-07-29T12:36:01;100402.41;;;24.34
78225;BMP280;67498;53.650;10.090;2023-07-29T12:38:27;100400.66;;;24.36
78225;BMP280;67498;53.650;10.090;2023-07-29T12:40:52;100401.47;;;24.50
78225;BMP280;67498;53.650;10.090;2023-07-29T12:43:18;100402.34;;;24.58
78225;BMP280;67498;53.650;10.090;2023-07-29T12:45:43;100402.00;;;24.67
78225;BMP280;67498;53.650;10.090;2023-07-29T12:48:09;100388.84;;;24.69
78225;BMP280;67498;53.650;10.090;2023-07-29T12:50:35;100409.41;;;24.74
78225;BMP280;67498;53.650;10.090;2023-07-29T12:53:01;100406.88;;;24.63
78225;BMP280;67498;53.650;10.090;2023-07-29T12:55:26;100411.72;;;24.65
78225;BMP280;67498;53.650;10.090;2023-07-29T12:57:51;100412.09;;;24.55
78225;BMP280;67498;53.650;10.090;2023-07-29T13:00:17;100408.69;;;24.55
78225;BMP280;67498;53.650;10.090;2023-07-29T13:02:42;100403.78;;;24.59
78225;BMP280;67498;53.650;10.090;2023-07-29T13:05:10;100411.06;;;24.77
78225;BMP280;67498;53.650;10.090;2023-07-29T13:07:37;100406.94;;;24.95
78225;BMP280;67498;53.650;10.090;2023-07-29T13:10:03;100410.66;;;25.05
78225;BMP280;67498;53.650;10.090;2023-07-29T13:12:28;100415.41;;;25.12
78225;BMP280;67498;53.650;10.090;2023-07-29T13:14:53;100422.72;;;25.25
78225;BMP280;67498;53.650;10.090;2023-07-29T13:17:19;100422.13;;;25.19
78225;BMP280;67498;53.650;10.090;2023-07-29T13:19:44;100423.31;;;25.05
78225;BMP280;67498;53.650;10.090;2023-07-29T13:22:09;100405.84;;;24.85
78225;BMP280;67498;53.650;10.090;2023-07-29T13:24:34;100426.81;;;24.81
78225;BMP280;67498;53.650;10.090;2023-07-29T13:27:00;100404.72;;;24.62
78225;BMP280;67498;53.650;10.090;2023-07-29T13:29:25;100423.78;;;24.52
78225;BMP280;67498;53.650;10.090;2023-07-29T13:31:50;100425.41;;;24.37
78225;BMP280;67498;53.650;10.090;2023-07-29T13:34:16;100432.53;;;24.28
78225;BMP280;67498;53.650;10.090;2023-07-29T13:36:41;100420.28;;;24.20
78225;BMP280;67498;53.650;10.090;2023-07-29T13:39:06;100424.81;;;24.25
78225;BMP280;67498;53.650;10.090;2023-07-29T13:41:31;100426.50;;;24.28
78225;BMP280;67498;53.650;10.090;2023-07-29T13:43:57;100424.47;;;24.34
78225;BMP280;67498;53.650;10.090;2023-07-29T13:46:22;100411.91;;;24.29
78225;BMP280;67498;53.650;10.090;2023-07-29T13:48:47;100419.28;;;24.42
78225;BMP280;67498;53.650;10.090;2023-07-29T13:51:12;100406.75;;;24.55
78225;BMP280;67498;53.650;10.090;2023-07-29T13:53:38;100409.63;;;24.76
78225;BMP280;67498;53.650;10.090;2023-07-29T13:56:04;100420.19;;;25.01